Time;durP1;ratioP1;P1;durP2;ratioP2;P2;SDS_P1;SDS_P2;PMS_P1;PMS_P2;Temp;Humidity;BMP_temperature;BMP_pressure;BME280_temperature;BME280_humidity;BME280_pressure;Samples;Min_cycle;Max_cycle;Signal;HPM_P1;HPM_P2
2022/10/28 00:01:23;;;;;;;;;13.33;10.00;;;;;19.07;65.83;101287.69;5066427;28;45659;-68
2022/10/28 00:03:52;;;;;;;;;12.67;10.00;;;;;19.14;65.83;101293.72;5064269;28;46121;-66
2022/10/28 00:06:23;;;;;;;;;11.67;11.67;;;;;19.06;65.98;101269.16;5067367;28;45356;-68
2022/10/28 00:08:49;;;;;;;;;10.67;10.67;;;;;19.10;65.63;101277.91;5066305;27;46663;-65
2022/10/28 00:11:21;;;;;;;;;13.00;10.67;;;;;19.04;65.89;101270.97;5053950;28;46471;-66
2022/10/28 00:13:49;;;;;;;;;11.67;10.33;;;;;19.03;65.91;101280.75;5070838;27;46819;-66
2022/10/28 00:16:21;;;;;;;;;15.33;9.33;;;;;19.00;66.27;101279.91;5051359;28;45421;-67
2022/10/28 00:18:48;;;;;;;;;17.00;15.00;;;;;18.92;66.32;101282.78;5081563;27;46596;-66
2022/10/28 00:21:17;;;;;;;;;15.33;11.00;;;;;18.93;66.30;101279.19;5064273;28;45688;-68
2022/10/28 00:23:43;;;;;;;;;11.00;9.67;;;;;18.75;66.58;101258.38;5068253;28;45674;-68
2022/10/28 00:26:12;;;;;;;;;12.00;10.67;;;;;18.79;66.48;101281.31;5069872;27;45461;-69
2022/10/28 00:28:42;;;;;;;;;10.00;9.00;;;;;18.81;66.67;101283.00;5071588;28;45442;-68
2022/10/28 00:31:10;;;;;;;;;11.33;10.33;;;;;18.84;66.52;101282.97;5052295;28;46784;-68
2022/10/28 00:33:36;;;;;;;;;10.33;8.67;;;;;18.84;66.52;101280.31;5050000;28;46849;-67
2022/10/28 00:36:09;;;;;;;;;9.67;8.33;;;;;18.79;66.77;101281.31;5060799;27;45648;-68
2022/10/28 00:38:35;;;;;;;;;14.33;10.67;;;;;18.76;66.70;101276.03;5047759;28;45532;-68
2022/10/28 00:41:00;;;;;;;;;13.00;9.67;;;;;18.72;67.02;101288.53;5057349;28;45957;-67
2022/10/28 00:43:37;;;;;;;;;16.67;13.67;;;;;18.65;67.13;101277.16;5067600;28;46143;-68
2022/10/28 00:46:06;;;;;;;;;13.00;10.00;;;;;18.61;67.07;101277.28;5066845;28;45744;-69
2022/10/28 00:48:32;;;;;;;;;15.67;13.67;;;;;18.64;67.18;101283.38;5061286;28;45435;-67
2022/10/28 00:50:58;;;;;;;;;9.00;8.67;;;;;18.64;67.22;101282.50;5062030;27;45508;-66
2022/10/28 00:53:33;;;;;;;;;11.33;9.33;;;;;18.62;67.21;101286.97;5072950;27;47286;-67
2022/10/28 00:56:02;;;;;;;;;14.67;11.33;;;;;18.58;67.09;101280.88;5055057;28;45539;-67
2022/10/28 00:58:28;;;;;;;;;10.33;9.00;;;;;18.52;67.18;101272.19;5067949;28;45886;-67
2022/10/28 01:00:55;;;;;;;;;10.33;10.33;;;;;18.52;67.37;101267.72;5060365;28;46088;-68
2022/10/28 01:03:21;;;;;;;;;10.67;9.00;;;;;18.44;67.38;101253.78;5067455;28;45508;-67
2022/10/28 01:05:49;;;;;;;;;9.67;9.33;;;;;18.59;67.06;101269.34;5059708;28;45396;-68
2022/10/28 01:08:15;;;;;;;;;12.33;10.33;;;;;18.59;67.02;101273.78;5061537;28;45449;-67
2022/10/28 01:11:11;;;;;;;;;7.33;7.33;;;;;18.59;67.23;101273.78;5069956;28;46032;-68
2022/10/28 01:14:02;;;;;;;;;11.00;8.33;;;;;18.53;67.12;101265.94;5056696;28;45475;-68
2022/10/28 01:16:57;;;;;;;;;10.00;9.33;;;;;18.52;67.28;101269.53;5054464;28;45503;-67
2022/10/28 01:19:53;;;;;;;;;12.33;9.67;;;;;18.50;67.37;101268.69;4987697;28;45705;-67
2022/10/28 01:22:52;;;;;;;;;10.00;10.00;;;;;18.44;67.42;101270.56;5049118;28;45429;-66
2022/10/28 01:25:36;;;;;;;;;11.67;9.00;;;;;18.39;67.52;101267.16;5064831;28;46407;-67
2022/10/28 01:28:47;;;;;;;;;9.67;8.33;;;;;18.36;67.76;101261.03;5038729;28;45537;-67
2022/10/28 01:31:22;;;;;;;;;13.67;10.00;;;;;18.34;67.76;101274.34;4984006;28;45377;-67
2022/10/28 01:34:02;;;;;;;;;10.33;8.33;;;;;18.28;67.58;101241.78;5046858;28;45846;-67
2022/10/28 01:36:37;;;;;;;;;9.33;8.67;;;;;18.37;67.40;101266.31;5063264;28;45600;-67
2022/10/28 01:39:19;;;;;;;;;12.00;10.33;;;;;18.34;67.86;101265.47;5039657;28;45519;-68
2022/10/28 01:41:58;;;;;;;;;8.67;8.33;;;;;18.30;67.87;101266.47;5063714;28;45807;-68
2022/10/28 01:44:36;;;;;;;;;12.00;8.33;;;;;18.33;67.54;101253.16;5061670;27;45525;-68
2022/10/28 01:47:16;;;;;;;;;10.67;7.00;;;;;18.31;67.61;101247.00;5070414;28;46002;-66
2022/10/28 01:49:57;;;;;;;;;11.00;8.00;;;;;18.36;67.54;101247.75;5051388;27;45566;-67
2022/10/28 01:52:27;;;;;;;;;9.33;6.67;;;;;18.40;67.50;101252.09;5075237;28;45599;-70
2022/10/28 01:54:59;;;;;;;;;10.33;8.00;;;;;18.32;67.44;101246.97;5072646;27;45432;-69
2022/10/28 01:57:26;;;;;;;;;11.00;9.33;;;;;18.24;67.96;101230.34;5042671;28;46722;-68
2022/10/28 01:59:52;;;;;;;;;9.67;8.00;;;;;18.20;68.01;101237.50;5075361;28;45539;-69
2022/10/28 02:02:18;;;;;;;;;9.00;8.33;;;;;18.27;67.86;101250.63;5080045;28;45305;-68
2022/10/28 02:04:43;;;;;;;;;11.33;7.67;;;;;18.17;67.99;101232.25;5072157;28;45719;-68
2022/10/28 02:07:09;;;;;;;;;9.00;9.00;;;;;18.19;68.09;101235.75;5059351;28;47485;-68
2022/10/28 02:10:10;;;;;;;;;9.67;8.00;;;;;18.27;67.86;101250.63;5072110;27;45747;-67
2022/10/28 02:12:37;;;;;;;;;10.33;9.67;;;;;18.12;67.91;101227.97;5077094;28;45553;-67
2022/10/28 02:15:28;;;;;;;;;11.67;10.00;;;;;18.18;67.97;101241.09;5048762;28;45396;-69
2022/10/28 02:18:12;;;;;;;;;9.67;8.67;;;;;18.16;68.09;101242.91;5067706;28;45533;-68
2022/10/28 02:20:58;;;;;;;;;8.67;7.33;;;;;18.15;68.24;101238.50;5072700;28;45802;-67
2022/10/28 02:23:41;;;;;;;;;8.67;7.33;;;;;17.99;68.27;101214.13;5065372;28;45440;-66
2022/10/28 02:26:12;;;;;;;;;8.67;8.33;;;;;18.09;68.45;101228.91;5077484;27;45436;-67
2022/10/28 02:28:56;;;;;;;;;8.00;6.33;;;;;18.08;68.19;101228.91;5079065;27;45622;-68
2022/10/28 02:31:21;;;;;;;;;8.00;8.00;;;;;18.10;68.23;101237.72;5076695;28;45591;-69
2022/10/28 02:33:53;;;;;;;;;9.33;8.67;;;;;18.11;67.98;101239.47;5074813;28;45472;-67
2022/10/28 02:36:21;;;;;;;;;8.33;8.00;;;;;18.05;68.30;101229.88;5075693;27;45735;-67
2022/10/28 02:38:55;;;;;;;;;9.33;7.67;;;;;18.08;68.02;101229.81;5067328;28;46017;-67
2022/10/28 02:41:23;;;;;;;;;11.00;9.33;;;;;18.07;68.14;101237.78;5068681;27;45560;-66
2022/10/28 02:43:54;;;;;;;;;13.67;7.67;;;;;17.95;67.89;101207.13;5073905;27;45447;-67
2022/10/28 02:46:22;;;;;;;;;12.33;7.67;;;;;17.84;68.02;101194.06;5063799;27;45508;-68
2022/10/28 02:48:55;;;;;;;;;8.67;7.67;;;;;18.03;68.02;101229.03;5068652;28;46276;-68
2022/10/28 02:51:27;;;;;;;;;10.00;6.67;;;;;18.00;68.42;101222.00;5072935;27;45441;-68
2022/10/28 02:54:12;;;;;;;;;8.00;6.00;;;;;18.07;68.08;101229.84;5075092;27;45287;-68
2022/10/28 02:56:44;;;;;;;;;9.67;8.33;;;;;18.05;67.88;101226.34;5062907;28;46910;-67
2022/10/28 02:59:11;;;;;;;;;11.00;7.00;;;;;18.00;68.11;101223.78;5069539;28;45441;-65
2022/10/28 03:01:38;;;;;;;;;10.33;7.33;;;;;18.03;68.03;101229.03;5065774;28;45272;-68
2022/10/28 03:04:04;;;;;;;;;4.67;4.33;;;;;18.00;67.67;101226.44;5074807;28;45462;-68
2022/10/28 03:06:30;;;;;;;;;6.67;6.67;;;;;17.94;68.17;101235.41;5071650;28;45420;-67
2022/10/28 03:08:55;;;;;;;;;7.67;6.67;;;;;17.87;68.12;101215.25;5076149;28;45292;-68
2022/10/28 03:11:21;;;;;;;;;8.00;6.67;;;;;17.93;68.06;101209.78;5065337;28;45478;-68
2022/10/28 03:13:46;;;;;;;;;9.00;7.00;;;;;17.97;67.92;101219.44;5061395;27;45481;-68
2022/10/28 03:16:12;;;;;;;;;9.33;7.00;;;;;17.94;67.86;101211.56;5061201;28;45388;-68
2022/10/28 03:18:37;;;;;;;;;8.00;7.00;;;;;17.84;68.44;101196.72;5077486;28;46161;-70
2022/10/28 03:21:03;;;;;;;;;11.67;9.00;;;;;17.80;68.23;101192.38;5069709;28;45468;-67
2022/10/28 03:23:28;;;;;;;;;7.33;7.33;;;;;17.84;68.04;101203.81;5074097;28;45507;-68
2022/10/28 03:25:54;;;;;;;;;11.67;8.67;;;;;17.78;68.30;101204.78;5072735;27;45870;-69
2022/10/28 03:28:19;;;;;;;;;8.00;3.00;;;;;17.84;68.24;101196.72;5074333;27;45591;-68
2022/10/28 03:30:45;;;;;;;;;11.67;8.33;;;;;17.75;68.21;101183.66;5072109;28;45484;-69
2022/10/28 03:33:11;;;;;;;;;9.00;7.00;;;;;17.92;68.11;101199.25;5076000;28;45548;-67
2022/10/28 03:35:36;;;;;;;;;9.33;7.33;;;;;17.81;68.00;101191.50;5077272;27;45414;-68
2022/10/28 03:38:02;;;;;;;;;8.00;6.67;;;;;17.69;68.14;101174.06;5078223;27;45380;-67
2022/10/28 03:40:27;;;;;;;;;7.33;7.00;;;;;17.85;68.13;101189.69;5058781;28;45637;-67
2022/10/28 03:42:53;;;;;;;;;10.67;6.67;;;;;17.76;68.27;101173.03;5075849;28;45462;-68
2022/10/28 03:45:18;;;;;;;;;10.67;8.00;;;;;17.89;68.25;101188.69;5064543;27;45334;-68
2022/10/28 03:47:44;;;;;;;;;9.33;7.33;;;;;17.88;67.49;101184.31;5058911;28;45425;-67
2022/10/28 03:50:10;;;;;;;;;5.33;5.00;;;;;17.94;67.92;101190.34;5072537;28;45712;-69
2022/10/28 03:52:36;;;;;;;;;10.00;7.67;;;;;17.93;67.65;101187.72;5058934;27;45623;-69
2022/10/28 03:55:01;;;;;;;;;8.33;6.33;;;;;17.87;67.71;101193.13;5073265;28;45710;-67
2022/10/28 03:57:31;;;;;;;;;8.00;7.00;;;;;17.87;67.93;101195.78;5072047;28;46146;-67
2022/10/28 03:59:57;;;;;;;;;7.33;6.67;;;;;17.66;67.75;101149.41;5073815;28;45404;-67
2022/10/28 04:02:22;;;;;;;;;8.67;6.00;;;;;17.85;67.75;101200.28;5072828;28;45341;-65
2022/10/28 04:04:48;;;;;;;;;8.67;7.67;;;;;17.85;67.96;101195.84;5071369;28;45393;-65
2022/10/28 04:07:13;;;;;;;;;8.00;7.00;;;;;17.77;68.02;101182.72;5050569;27;47655;-65
2022/10/28 04:09:39;;;;;;;;;12.67;8.33;;;;;17.71;67.96;101179.31;5065315;27;45229;-66
2022/10/28 04:12:05;;;;;;;;;14.00;6.33;;;;;17.79;67.63;101187.97;5071059;28;45502;-66
2022/10/28 04:14:31;;;;;;;;;8.33;6.67;;;;;17.82;68.00;101181.78;5054805;28;45390;-66
2022/10/28 04:16:56;;;;;;;;;7.33;7.33;;;;;17.78;67.97;101178.28;5072849;28;46548;-65
2022/10/28 04:19:22;;;;;;;;;8.00;6.33;;;;;17.83;67.76;101184.41;5072218;28;45399;-68
2022/10/28 04:21:48;;;;;;;;;13.00;7.33;;;;;17.84;67.62;101193.22;5065017;28;45721;-67
2022/10/28 04:24:13;;;;;;;;;11.33;9.33;;;;;17.73;67.65;101162.50;5074944;28;45781;-67
2022/10/28 04:26:39;;;;;;;;;10.00;7.00;;;;;17.86;67.92;101186.97;5069288;28;46386;-67
2022/10/28 04:29:04;;;;;;;;;8.33;6.67;;;;;17.72;67.74;101168.69;5073017;28;45429;-67
2022/10/28 04:31:30;;;;;;;;;8.00;6.00;;;;;17.87;67.26;101198.44;5069631;28;45416;-68
2022/10/28 04:33:55;;;;;;;;;10.33;6.67;;;;;17.90;67.48;101185.16;5062259;28;45379;-68
2022/10/28 04:36:21;;;;;;;;;13.33;8.67;;;;;17.69;67.12;101152.84;5078371;27;46142;-69
2022/10/28 04:38:46;;;;;;;;;9.67;6.67;;;;;17.90;67.21;101195.75;5076449;27;45319;-67
2022/10/28 04:41:13;;;;;;;;;8.33;7.00;;;;;17.90;67.17;101193.09;5061409;28;45769;-65
2022/10/28 04:43:39;;;;;;;;;8.33;8.33;;;;;17.84;67.35;101185.25;5078340;28;45438;-68
2022/10/28 04:46:04;;;;;;;;;4.00;0.00;;;;;17.85;67.24;101193.19;5056949;27;46387;-68
2022/10/28 04:48:31;;;;;;;;;12.67;7.00;;;;;17.82;67.65;101177.38;5065233;28;45750;-68
2022/10/28 04:50:57;;;;;;;;;10.00;6.67;;;;;17.74;67.30;101177.47;5047417;28;45676;-68
2022/10/28 04:53:22;;;;;;;;;9.33;7.67;;;;;17.80;67.17;101187.09;5076897;28;45676;-68
2022/10/28 04:55:48;;;;;;;;;6.00;5.67;;;;;17.75;67.13;101165.13;5062810;28;46822;-68
2022/10/28 04:58:13;;;;;;;;;8.33;7.00;;;;;17.76;67.30;101186.25;5077397;28;45536;-66
2022/10/28 05:00:39;;;;;;;;;7.33;7.33;;;;;17.60;67.24;101155.69;5070122;27;45448;-67
2022/10/28 05:03:05;;;;;;;;;14.00;8.33;;;;;17.72;67.47;101183.72;5061738;27;45522;-66
2022/10/28 05:05:31;;;;;;;;;4.00;4.00;;;;;17.73;67.43;101191.63;5061919;28;45613;-66
2022/10/28 05:07:56;;;;;;;;;9.67;8.33;;;;;17.59;67.54;101172.50;5078845;27;45713;-69
2022/10/28 05:10:22;;;;;;;;;9.67;6.00;;;;;17.73;67.51;101181.03;5074245;28;46639;-68
2022/10/28 05:12:48;;;;;;;;;7.00;6.00;;;;;17.70;67.41;101180.22;5074049;27;45548;-68
2022/10/28 05:15:14;;;;;;;;;9.00;5.67;;;;;17.58;67.48;101154.84;5074776;27;45525;-67
2022/10/28 05:17:42;;;;;;;;;7.00;6.67;;;;;17.60;67.52;101153.91;5076378;28;45527;-68
2022/10/28 05:20:09;;;;;;;;;5.33;5.33;;;;;17.65;67.50;101175.00;5074880;27;45452;-69
2022/10/28 05:22:35;;;;;;;;;8.33;7.00;;;;;17.70;67.39;101182.84;5069753;28;45495;-68
2022/10/28 05:25:05;;;;;;;;;9.33;6.67;;;;;17.63;67.41;101179.50;5068182;27;45916;-67
2022/10/28 05:27:31;;;;;;;;;7.67;6.67;;;;;17.65;67.35;101174.13;5052378;28;45931;-67
2022/10/28 05:29:57;;;;;;;;;8.00;7.67;;;;;17.66;67.43;101178.56;5064823;28;45432;-66
2022/10/28 05:32:22;;;;;;;;;8.00;7.33;;;;;17.66;67.26;101182.06;5059518;28;45617;-68
2022/10/28 05:34:48;;;;;;;;;15.33;7.67;;;;;17.64;67.00;101177.72;5055844;27;46153;-67
2022/10/28 05:37:13;;;;;;;;;12.33;7.67;;;;;17.62;66.99;101175.06;5056817;28;45463;-65
2022/10/28 05:39:39;;;;;;;;;9.33;7.33;;;;;17.62;66.89;101176.84;5057107;28;46038;-68
2022/10/28 05:42:04;;;;;;;;;12.33;7.33;;;;;17.65;67.00;101177.66;5055106;28;45500;-67
2022/10/28 05:44:30;;;;;;;;;7.67;7.67;;;;;17.67;66.62;101182.94;5056414;27;45570;-65
2022/10/28 05:46:55;;;;;;;;;10.33;8.00;;;;;17.58;66.79;101170.75;5059916;28;45950;-69
2022/10/28 05:49:21;;;;;;;;;11.00;7.67;;;;;17.59;66.64;101170.72;5058356;27;45751;-68
2022/10/28 05:51:47;;;;;;;;;15.00;11.00;;;;;17.60;66.67;101166.28;5066559;27;45336;-68
2022/10/28 05:54:12;;;;;;;;;11.67;8.67;;;;;17.58;66.55;101168.09;5078377;27;46519;-65
2022/10/28 05:56:38;;;;;;;;;9.33;8.33;;;;;17.63;66.50;101176.84;5062934;28;45335;-68
2022/10/28 05:59:03;;;;;;;;;11.67;8.33;;;;;17.56;66.53;101173.44;5063618;28;45327;-68
2022/10/28 06:01:29;;;;;;;;;10.67;8.33;;;;;17.51;66.65;101170.00;5079020;27;45523;-68
2022/10/28 06:03:54;;;;;;;;;9.67;9.00;;;;;17.59;66.83;101183.09;5076464;27;46201;-67
2022/10/28 06:06:20;;;;;;;;;10.33;5.67;;;;;17.61;66.52;101191.88;5071892;27;45457;-67
2022/10/28 06:08:45;;;;;;;;;8.33;8.00;;;;;17.60;66.50;101188.34;5073281;27;46299;-67
2022/10/28 06:11:11;;;;;;;;;8.33;8.33;;;;;17.52;66.66;101177.03;5075579;28;45367;-68
2022/10/28 06:13:37;;;;;;;;;12.33;9.00;;;;;17.64;66.52;101204.19;5073772;27;46555;-67
2022/10/28 06:16:02;;;;;;;;;10.33;8.67;;;;;17.63;66.38;101194.50;5074588;27;45503;-67
2022/10/28 06:18:28;;;;;;;;;7.00;6.00;;;;;17.58;66.29;101190.19;5059816;28;45535;-67
2022/10/28 06:20:56;;;;;;;;;9.67;6.33;;;;;17.63;66.15;101191.84;5079111;28;45326;-67
2022/10/28 06:23:23;;;;;;;;;7.00;4.33;;;;;17.61;66.19;101189.25;5075893;28;45453;-67
2022/10/28 06:25:48;;;;;;;;;10.33;8.00;;;;;17.66;66.07;101200.59;5075548;28;45319;-67
2022/10/28 06:28:14;;;;;;;;;9.33;7.33;;;;;17.35;66.11;101150.03;5075196;27;45548;-67
2022/10/28 06:30:39;;;;;;;;;10.33;9.00;;;;;17.65;66.02;101205.94;5072336;27;46022;-66
2022/10/28 06:33:05;;;;;;;;;11.33;8.67;;;;;17.54;66.01;101195.56;5073679;28;46181;-68
2022/10/28 06:35:30;;;;;;;;;11.33;9.00;;;;;17.61;66.19;101210.44;5075094;27;45696;-67
2022/10/28 06:37:57;;;;;;;;;10.00;7.67;;;;;17.56;66.39;101207.88;5076381;28;45485;-67
2022/10/28 06:40:23;;;;;;;;;7.00;5.33;;;;;17.61;66.30;101210.44;5079448;27;45338;-66
2022/10/28 06:42:57;;;;;;;;;10.33;8.00;;;;;17.60;65.81;101206.00;5060743;28;47550;-65
2022/10/28 06:45:22;;;;;;;;;10.00;8.33;;;;;17.59;66.20;101218.41;5075318;27;45425;-66
2022/10/28 06:47:48;;;;;;;;;9.67;7.33;;;;;17.49;66.08;101208.03;5076399;27;45692;-68
2022/10/28 06:50:14;;;;;;;;;14.67;9.00;;;;;17.58;65.57;101216.66;5076105;27;45440;-68
2022/10/28 06:52:39;;;;;;;;;12.33;9.00;;;;;17.41;66.06;101207.28;5071310;27;45526;-67
2022/10/28 06:55:05;;;;;;;;;15.67;11.33;;;;;17.62;66.01;101233.34;5069496;27;45484;-68
2022/10/28 06:57:31;;;;;;;;;7.33;7.00;;;;;17.64;65.76;101230.69;5074299;28;45602;-69
2022/10/28 06:59:56;;;;;;;;;12.33;9.33;;;;;17.53;65.70;101223.78;5073493;27;45408;-68
2022/10/28 07:02:22;;;;;;;;;10.33;9.00;;;;;17.37;65.70;101193.25;5074769;28;45460;-69
2022/10/28 07:04:47;;;;;;;;;6.67;3.67;;;;;17.60;65.81;101245.75;5072313;27;46013;-68
2022/10/28 07:07:13;;;;;;;;;14.67;10.00;;;;;17.67;65.72;101251.81;5073883;27;45815;-67
2022/10/28 07:09:38;;;;;;;;;11.33;8.33;;;;;17.65;65.21;101251.81;5076150;27;45413;-67
2022/10/28 07:12:06;;;;;;;;;14.00;8.67;;;;;17.65;65.40;101257.13;5078482;28;46561;-68
2022/10/28 07:14:33;;;;;;;;;7.67;7.67;;;;;17.73;65.12;101263.16;5078179;27;45307;-68
2022/10/28 07:16:59;;;;;;;;;11.33;8.67;;;;;17.80;64.74;101264.81;5053493;27;45643;-69
2022/10/28 07:19:25;;;;;;;;;12.00;10.00;;;;;17.85;64.97;101269.16;5071812;27;45595;-68
2022/10/28 07:21:50;;;;;;;;;12.67;7.67;;;;;17.77;64.39;101250.72;5076471;28;45496;-69
2022/10/28 07:24:16;;;;;;;;;9.00;9.00;;;;;17.86;64.44;101252.34;5071660;27;45473;-67
2022/10/28 07:26:41;;;;;;;;;10.67;8.00;;;;;18.02;64.20;101272.34;5073896;27;45571;-66
2022/10/28 07:29:07;;;;;;;;;7.67;7.00;;;;;18.13;64.01;101282.75;5061248;28;47179;-68
2022/10/28 07:31:32;;;;;;;;;8.00;8.00;;;;;18.15;63.50;101265.91;5073950;28;45582;-68
2022/10/28 07:33:58;;;;;;;;;9.00;6.00;;;;;18.26;63.31;101284.22;5069961;27;45397;-66
2022/10/28 07:36:23;;;;;;;;;11.67;9.00;;;;;18.35;63.11;101275.19;5070027;27;45569;-68
2022/10/28 07:38:51;;;;;;;;;10.33;8.33;;;;;18.47;62.71;101288.19;5077510;27;45451;-67
2022/10/28 07:41:18;;;;;;;;;9.00;8.67;;;;;18.51;62.33;101278.38;5073392;27;46338;-67
2022/10/28 07:43:44;;;;;;;;;10.67;8.67;;;;;18.66;62.02;101275.38;5074093;28;45357;-69
2022/10/28 07:46:10;;;;;;;;;12.00;8.33;;;;;18.83;61.98;101294.47;5069315;27;45523;-68
2022/10/28 07:48:36;;;;;;;;;10.00;9.67;;;;;18.82;61.50;101279.47;5065747;28;45619;-69
2022/10/28 07:51:04;;;;;;;;;12.67;10.33;;;;;18.91;61.47;101286.34;5073476;28;45433;-67
2022/10/28 07:53:30;;;;;;;;;10.00;8.67;;;;;19.00;61.12;101295.84;5069706;27;45743;-66
2022/10/28 07:56:01;;;;;;;;;12.33;10.33;;;;;19.14;60.70;101300.81;5066314;27;45425;-66
2022/10/28 07:58:28;;;;;;;;;16.33;10.00;;;;;19.11;60.48;101299.13;5070436;27;46012;-66
2022/10/28 08:00:53;;;;;;;;;11.67;10.00;;;;;19.25;60.46;101307.63;5057074;28;47630;-67
2022/10/28 08:03:19;;;;;;;;;9.33;9.00;;;;;19.37;60.07;101311.75;5076271;27;45489;-68
2022/10/28 08:05:45;;;;;;;;;9.33;9.33;;;;;19.37;60.15;101303.78;5074043;28;45453;-66
2022/10/28 08:08:11;;;;;;;;;12.00;9.00;;;;;19.51;59.54;101319.38;5073625;28;45603;-66
2022/10/28 08:10:36;;;;;;;;;10.00;9.67;;;;;19.63;58.90;101334.13;5072588;28;45444;-69
2022/10/28 08:13:02;;;;;;;;;10.67;9.33;;;;;19.62;58.91;101311.09;5076056;28;45729;-67
2022/10/28 08:15:28;;;;;;;;;12.67;9.33;;;;;19.80;57.77;101329.25;5072477;27;45603;-66
2022/10/28 08:17:55;;;;;;;;;13.00;10.67;;;;;19.68;57.87;101316.31;5070116;27;45674;-69
2022/10/28 08:20:22;;;;;;;;;12.67;9.67;;;;;19.76;57.81;101330.25;5068652;28;45707;-70
2022/10/28 08:22:48;;;;;;;;;12.33;7.33;;;;;19.72;58.25;101339.25;5052580;28;45510;-70
2022/10/28 08:25:14;;;;;;;;;9.00;8.67;;;;;19.77;58.16;101341.78;5057283;28;45433;-69
2022/10/28 08:27:41;;;;;;;;;9.00;7.00;;;;;19.77;57.85;101342.63;5063161;27;45723;-68
2022/10/28 08:30:08;;;;;;;;;12.33;8.33;;;;;19.82;56.85;101340.72;5067263;27;45902;-66
2022/10/28 08:32:33;;;;;;;;;8.00;7.67;;;;;19.76;56.85;101346.19;5064585;27;45383;-69
2022/10/28 08:34:59;;;;;;;;;10.00;9.00;;;;;19.75;56.85;101352.44;5040883;27;45598;-67
2022/10/28 08:37:25;;;;;;;;;15.67;11.33;;;;;19.71;57.44;101337.47;5052466;28;46333;-71
2022/10/28 08:39:50;;;;;;;;;9.67;8.33;;;;;19.91;56.06;101356.44;5062300;28;45596;-69
2022/10/28 08:42:45;;;;;;;;;9.00;6.67;;;;;19.97;56.15;101349.19;5071016;28;45788;-69
2022/10/28 08:45:42;;;;;;;;;11.00;8.00;;;;;20.17;55.98;101356.63;5061015;27;45461;-69
2022/10/28 08:48:20;;;;;;;;;10.67;10.00;;;;;20.26;55.30;101349.28;5059416;28;45635;-68
2022/10/28 08:50:51;;;;;;;;;12.67;11.00;;;;;20.43;54.63;101363.84;5063073;27;47127;-69
2022/10/28 08:53:32;;;;;;;;;9.00;7.00;;;;;20.60;54.87;101369.59;5056465;28;45488;-69
2022/10/28 08:56:24;;;;;;;;;6.67;6.00;;;;;20.72;54.07;101357.72;5058454;28;45544;-67
2022/10/28 08:59:04;;;;;;;;;9.67;8.00;;;;;21.15;53.92;101362.56;5051637;28;45676;-73
2022/10/28 09:01:53;;;;;;;;;8.00;8.00;;;;;21.08;53.59;101370.81;5053812;28;45489;-71
2022/10/28 09:04:31;;;;;;;;;13.00;8.33;;;;;20.90;53.61;101388.22;5070851;27;45401;-67
2022/10/28 09:06:56;;;;;;;;;9.67;9.00;;;;;21.33;53.03;101389.53;5062420;27;45746;-67
2022/10/28 09:09:25;;;;;;;;;8.00;8.00;;;;;22.14;51.58;101400.16;5064261;28;45367;-70
2022/10/28 09:12:08;;;;;;;;;9.33;8.00;;;;;22.83;49.68;101378.06;5066199;28;46221;-71
2022/10/28 09:15:02;;;;;;;;;8.00;6.00;;;;;23.27;47.76;101348.69;5047169;28;45685;-77
2022/10/28 09:17:56;;;;;;;;;8.67;8.67;;;;;23.87;47.63;101370.25;5062082;28;45473;-75
2022/10/28 09:20:55;;;;;;;;;8.67;7.33;;;;;24.37;45.78;101383.22;5048843;28;45502;-76
2022/10/28 09:23:28;;;;;;;;;11.00;8.00;;;;;;;;5068326;28;47290;-81
2022/10/28 09:26:35;;;;;;;;;8.00;8.00;;;;;24.84;44.78;101390.84;5071842;28;45815;-75
2022/10/28 09:29:06;;;;;;;;;9.33;9.00;;;;;25.53;43.66;101394.69;5047263;28;45493;-74
2022/10/28 09:31:43;;;;;;;;;8.75;7.50;;;;;25.66;42.57;101386.91;5069780;28;45457;-78
2022/10/28 09:34:29;;;;;;;;;11.33;7.00;;;;;26.21;42.22;101401.03;5068022;28;46165;-77
2022/10/28 09:37:17;;;;;;;;;12.00;8.75;;;;;26.94;40.82;101410.59;5067666;28;45517;-78
2022/10/28 09:39:51;;;;;;;;;10.50;7.50;;;;;27.04;41.09;101398.34;5063870;28;45655;-76
2022/10/28 09:42:34;;;;;;;;;10.00;8.25;;;;;26.83;40.83;101376.22;5066727;28;45702;-72
2022/10/28 09:45:04;;;;;;;;;15.75;8.75;;;;;26.45;40.67;101401.53;5053209;28;47925;-69
2022/10/28 09:47:58;;;;;;;;;10.50;7.25;;;;;25.16;42.22;101300.00;5051639;28;46446;-78
2022/10/28 09:50:30;;;;;;;;;10.50;7.50;;;;;25.31;43.93;101382.38;5054886;28;45927;-79
2022/10/28 09:53:17;;;;;;;;;9.25;9.00;;;;;25.94;42.88;101410.56;5068641;28;45505;-76
2022/10/28 09:55:49;;;;;;;;;11.50;8.75;;;;;26.16;42.23;101400.41;5067440;27;45416;-71
2022/10/28 09:58:17;;;;;;;;;12.00;7.50;;;;;26.38;42.12;101401.97;5069950;28;45461;-74
2022/10/28 10:00:43;;;;;;;;;11.00;8.75;;;;;26.40;41.78;101405.44;5072224;27;45445;-70
2022/10/28 10:03:09;;;;;;;;;11.00;7.00;;;;;26.18;42.08;101392.28;5068268;28;45655;-74
2022/10/28 10:05:42;;;;;;;;;8.00;8.00;;;;;26.71;41.57;101418.09;5052196;28;45786;-76
2022/10/28 10:08:13;;;;;;;;;6.75;6.75;;;;;26.75;41.44;101416.97;5062839;28;45755;-77
2022/10/28 10:11:16;;;;;;;;;6.75;6.00;;;;;26.83;41.40;101436.22;5062629;28;45557;-77
2022/10/28 10:13:44;;;;;;;;;8.50;8.00;;;;;26.72;40.85;101427.00;5067819;28;47277;-74
2022/10/28 10:16:40;;;;;;;;;11.25;7.50;;;;;26.38;41.88;101447.59;5049748;28;46393;-75
2022/10/28 10:19:09;;;;;;;;;9.50;8.25;;;;;25.87;42.92;101439.53;5066366;27;45533;-73
2022/10/28 10:21:45;;;;;;;;;6.75;6.50;;;;;25.07;43.51;101432.66;5074676;27;45778;-73
2022/10/28 10:24:40;;;;;;;;;9.25;7.00;;;;;25.31;44.01;101445.84;5070758;27;45591;-72
2022/10/28 10:27:09;;;;;;;;;7.25;6.75;;;;;25.92;43.26;101450.03;5048417;28;47369;-73
2022/10/28 10:29:36;;;;;;;;;10.50;8.25;;;;;26.58;41.88;101439.41;5046931;28;46501;-75
2022/10/28 10:32:27;;;;;;;;;7.00;7.00;;;;;27.11;40.85;101444.59;5064021;28;45567;-73
2022/10/28 10:35:13;;;;;;;;;11.00;8.75;;;;;26.97;41.05;101439.97;5052080;28;45323;-76
2022/10/28 10:37:46;;;;;;;;;7.75;6.50;;;;;26.34;42.26;101433.50;5050647;28;45571;-72
2022/10/28 10:40:15;;;;;;;;;13.25;10.00;;;;;25.95;42.88;101437.28;5070650;28;46046;-74
2022/10/28 10:42:41;;;;;;;;;9.75;8.25;;;;;27.00;41.59;101434.41;5066350;28;45793;-75
2022/10/28 10:45:18;;;;;;;;;9.75;7.00;;;;;28.37;39.02;101435.38;5047665;28;45614;-75
2022/10/28 10:47:43;;;;;;;;;11.50;11.50;;;;;28.79;37.86;101438.22;5062750;27;45473;-71
2022/10/28 10:50:28;;;;;;;;;12.00;10.75;;;;;29.68;35.90;101454.91;5052699;28;45528;-73
2022/10/28 10:52:58;;;;;;;;;13.25;9.25;;;;;29.78;36.36;101452.44;5060615;28;45492;-75
2022/10/28 10:55:33;;;;;;;;;52.67;42.67;;;;;29.66;36.54;101473.03;5069874;28;45805;-71
2022/10/28 10:58:01;;;;;;;;;59.67;46.67;;;;;29.69;36.12;101463.88;5060352;27;45390;-69
2022/10/28 11:00:34;;;;;;;;;43.00;34.67;;;;;30.20;36.28;101464.84;5065659;28;45919;-70
2022/10/28 11:03:01;;;;;;;;;23.50;17.00;;;;;30.81;34.91;101462.38;5063554;28;46565;-68
2022/10/28 11:05:27;;;;;;;;;0.00;0.00;;;;;31.56;33.15;101447.94;5058159;28;46029;-72
2022/10/28 11:07:53;;;;;;;;;12.75;9.00;;;;;32.43;33.12;101467.44;5063895;28;45517;-76
2022/10/28 11:10:30;;;;;;;;;7.40;7.40;;;;;32.98;31.64;101470.28;5054303;28;45521;-73
2022/10/28 11:13:00;;;;;;;;;12.40;8.40;;;;;32.81;31.65;101462.69;5063631;28;45414;-75
2022/10/28 11:15:28;;;;;;;;;9.75;9.00;;;;;32.52;31.91;101466.72;5059732;28;45478;-76
2022/10/28 11:18:00;;;;;;;;;8.25;8.25;;;;;32.56;32.67;101485.47;5064252;27;47690;-74
2022/10/28 11:20:34;;;;;;;;;11.20;9.20;;;;;32.45;31.89;101478.16;5053819;28;45674;-73
2022/10/28 11:23:29;;;;;;;;;12.20;9.00;;;;;32.37;32.37;101480.59;5053884;28;45478;-70
2022/10/28 11:26:00;;;;;;;;;9.75;8.25;;;;;32.10;32.71;101501.59;5063453;28;45633;-74
2022/10/28 11:28:47;;;;;;;;;11.25;9.00;;;;;32.49;32.59;101496.78;5059955;28;45529;-72
2022/10/28 11:31:45;;;;;;;;;8.00;8.00;;;;;33.07;32.12;101471.44;5062303;28;45642;-75
2022/10/28 11:34:29;;;;;;;;;8.00;7.60;;;;;33.77;30.35;101500.06;5059133;28;45765;-75
2022/10/28 11:37:24;;;;;;;;;7.25;6.25;;;;;33.60;30.83;101493.31;5052803;28;45539;-75